createdAt,value
2018-03-04T00:01:56.796Z,88.50
2018-03-04T00:04:29.906Z,88.59
2018-03-04T00:07:03.209Z,88.66
2018-03-04T00:09:30.955Z,88.72
2018-03-04T00:11:58.461Z,88.70
2018-03-04T00:14:26.013Z,88.67
2018-03-04T00:16:53.472Z,88.60
2018-03-04T00:19:21.132Z,88.63
2018-03-04T00:21:48.676Z,88.54
2018-03-04T00:24:16.605Z,88.56
2018-03-04T00:26:44.078Z,88.51
2018-03-04T00:29:12.098Z,88.59
2018-03-04T00:31:40.137Z,88.73
2018-03-04T00:34:09.336Z,88.84
2018-03-04T00:36:37.226Z,88.89
2018-03-04T00:39:05.837Z,88.98
2018-03-04T00:41:33.833Z,89.01
2018-03-04T00:44:01.661Z,88.93
2018-03-04T00:46:29.169Z,88.94
2018-03-04T00:48:56.800Z,88.92
2018-03-04T00:51:24.279Z,88.84
2018-03-04T00:53:52.686Z,88.93
2018-03-04T00:56:20.244Z,89.08
2018-03-04T00:58:49.112Z,89.28
2018-03-04T01:01:16.838Z,89.36
2018-03-04T01:03:47.176Z,89.42
2018-03-04T01:06:14.951Z,89.54
2018-03-04T01:08:42.578Z,89.62
2018-03-04T01:11:11.344Z,89.64
2018-03-04T01:13:38.822Z,89.72
2018-03-04T01:16:06.517Z,89.80
2018-03-04T01:18:33.995Z,89.78
2018-03-04T01:21:01.929Z,89.63
2018-03-04T01:23:29.463Z,89.41
2018-03-04T01:25:57.263Z,89.24
2018-03-04T01:28:26.472Z,89.12
2018-03-04T01:30:53.940Z,88.92
2018-03-04T01:33:21.539Z,88.83
2018-03-04T01:35:49.107Z,88.81
2018-03-04T01:38:16.619Z,88.77
2018-03-04T01:40:44.958Z,88.66
2018-03-04T01:43:12.499Z,88.55
2018-03-04T01:45:40.051Z,88.49
2018-03-04T01:48:07.620Z,88.54
2018-03-04T01:50:35.798Z,88.61
2018-03-04T01:53:04.446Z,88.64
2018-03-04T01:55:32.916Z,88.61
2018-03-04T01:58:00.424Z,88.55
2018-03-04T02:00:27.946Z,88.61
2018-03-04T02:02:55.750Z,88.75
2018-03-04T02:05:23.235Z,88.75
2018-03-04T02:07:50.738Z,88.84
2018-03-04T02:10:18.251Z,89.03
2018-03-04T02:12:45.715Z,89.22
2018-03-04T02:15:13.465Z,89.40
2018-03-04T02:17:40.967Z,89.51
2018-03-04T02:20:08.443Z,89.70
2018-03-04T02:22:35.968Z,89.98
2018-03-04T02:25:03.451Z,90.08
2018-03-04T02:27:30.984Z,90.11
2018-03-04T02:29:58.498Z,90.13
2018-03-04T02:32:26.014Z,90.10
2018-03-04T02:34:53.540Z,90.16
2018-03-04T02:37:21.298Z,90.20
2018-03-04T02:39:48.775Z,90.25
2018-03-04T02:42:16.236Z,90.09
2018-03-04T02:44:43.732Z,90.00
2018-03-04T02:47:11.215Z,89.87
2018-03-04T02:49:38.983Z,89.65
2018-03-04T02:52:06.883Z,89.57
2018-03-04T02:54:34.363Z,89.46
2018-03-04T02:57:01.881Z,89.34
2018-03-04T02:59:29.371Z,89.30
2018-03-04T03:01:56.839Z,89.36
2018-03-04T03:04:24.363Z,89.40
2018-03-04T03:06:51.891Z,89.38
2018-03-04T03:09:19.343Z,89.33
2018-03-04T03:11:46.823Z,89.33
2018-03-04T03:14:14.323Z,89.42
2018-03-04T03:16:41.798Z,89.41
2018-03-04T03:19:10.012Z,89.32
2018-03-04T03:21:37.500Z,89.19
2018-03-04T03:24:06.567Z,89.12
2018-03-04T03:26:34.373Z,89.12
2018-03-04T03:29:01.899Z,89.24
2018-03-04T03:31:29.391Z,89.23
2018-03-04T03:33:59.295Z,89.28
2018-03-04T03:36:29.013Z,89.36
2018-03-04T03:38:56.624Z,89.50
2018-03-04T03:41:24.111Z,89.72
2018-03-04T03:43:51.590Z,89.92
2018-03-04T03:46:19.107Z,90.22
2018-03-04T03:48:47.162Z,90.49
2018-03-04T03:51:14.652Z,90.85
2018-03-04T03:53:42.132Z,91.18
2018-03-04T03:56:09.614Z,91.41
2018-03-04T03:58:37.086Z,91.70
2018-03-04T04:01:04.599Z,91.99
2018-03-04T04:03:32.075Z,92.15
2018-03-04T04:05:59.563Z,92.24
2018-03-04T04:08:27.031Z,92.34
2018-03-04T04:10:54.531Z,92.46
2018-03-04T04:13:21.991Z,92.59
2018-03-04T04:15:49.478Z,92.64
2018-03-04T04:18:16.944Z,92.70
2018-03-04T04:20:44.434Z,92.65
2018-03-04T04:23:11.891Z,92.69
2018-03-04T04:25:39.378Z,92.69
2018-03-04T04:28:06.845Z,92.79
2018-03-04T04:30:34.383Z,92.82
2018-03-04T04:33:01.833Z,92.83
2018-03-04T04:35:29.334Z,92.89
2018-03-04T04:37:56.795Z,92.99
2018-03-04T04:40:24.262Z,93.10
2018-03-04T04:42:51.748Z,93.23
2018-03-04T04:45:19.211Z,93.29
2018-03-04T04:47:46.703Z,93.33
2018-03-04T04:50:14.199Z,93.42
2018-03-04T04:52:42.615Z,93.47
2018-03-04T04:55:11.246Z,93.55
2018-03-04T04:57:38.727Z,93.63
2018-03-04T05:00:06.188Z,93.68
2018-03-04T05:02:33.692Z,93.73
2018-03-04T05:05:01.156Z,93.86
2018-03-04T05:07:28.657Z,93.96
2018-03-04T05:09:56.130Z,93.98
2018-03-04T05:12:24.712Z,94.21
2018-03-04T05:14:52.180Z,94.14
2018-03-04T05:17:19.659Z,94.13
2018-03-04T05:19:47.125Z,94.20
2018-03-04T05:22:14.603Z,94.28
2018-03-04T05:24:42.075Z,94.29
2018-03-04T05:27:09.568Z,94.25
2018-03-04T05:29:37.044Z,94.28
2018-03-04T05:32:04.542Z,94.35
2018-03-04T05:34:32.008Z,94.41
2018-03-04T05:36:59.503Z,94.50
2018-03-04T05:39:26.963Z,94.53
2018-03-04T05:41:54.452Z,94.55
2018-03-04T05:44:21.966Z,94.57
2018-03-04T05:46:49.464Z,94.64
2018-03-04T05:49:16.932Z,94.73
2018-03-04T05:51:44.422Z,94.77
2018-03-04T05:54:11.886Z,94.91
2018-03-04T05:56:39.383Z,95.02
2018-03-04T05:59:06.848Z,95.09
2018-03-04T06:01:34.332Z,95.03
2018-03-04T06:04:02.687Z,95.01
2018-03-04T06:06:30.152Z,95.03
2018-03-04T06:08:57.651Z,95.01
2018-03-04T06:11:25.125Z,95.04
2018-03-04T06:13:52.616Z,95.10
2018-03-04T06:16:20.091Z,95.08
2018-03-04T06:18:47.579Z,95.13
2018-03-04T06:21:15.047Z,95.25
2018-03-04T06:23:42.533Z,95.33
2018-03-04T06:26:09.999Z,95.47
2018-03-04T06:28:37.484Z,95.52
2018-03-04T06:31:04.947Z,95.59
2018-03-04T06:33:32.440Z,95.59
2018-03-04T06:35:59.908Z,95.57
2018-03-04T06:38:27.391Z,95.50
2018-03-04T06:40:54.855Z,95.53
2018-03-04T06:43:22.337Z,95.50
2018-03-04T06:45:49.800Z,95.51
2018-03-04T06:48:17.278Z,95.45
2018-03-04T06:50:44.748Z,95.49
2018-03-04T06:53:12.235Z,95.41
2018-03-04T06:55:39.699Z,95.23
2018-03-04T06:58:07.183Z,95.00
2018-03-04T07:00:34.647Z,94.74
2018-03-04T07:03:02.142Z,94.43
2018-03-04T07:05:29.611Z,94.16
2018-03-04T07:07:57.097Z,93.55
2018-03-04T07:10:24.575Z,93.04
2018-03-04T07:12:52.067Z,92.42
2018-03-04T07:15:19.531Z,91.63
2018-03-04T07:17:47.012Z,90.62
2018-03-04T07:20:14.472Z,90.05
2018-03-04T07:22:41.934Z,89.69
2018-03-04T07:25:09.425Z,89.30
2018-03-04T07:27:36.896Z,88.60
2018-03-04T07:30:04.378Z,88.22
2018-03-04T07:32:31.835Z,88.03
2018-03-04T07:34:59.340Z,87.34
2018-03-04T07:37:26.811Z,86.58
2018-03-04T07:39:54.299Z,85.36
2018-03-04T07:42:21.767Z,84.51
2018-03-04T07:44:49.259Z,84.03
2018-03-04T07:47:16.756Z,84.02
2018-03-04T07:49:44.214Z,83.96
2018-03-04T07:52:11.699Z,83.91
2018-03-04T07:54:39.183Z,83.99
2018-03-04T07:57:06.646Z,84.22
2018-03-04T07:59:34.187Z,84.42
2018-03-04T08:02:01.634Z,84.69
2018-03-04T08:04:29.127Z,84.75
2018-03-04T08:06:56.599Z,84.82
2018-03-04T08:09:24.092Z,84.63
2018-03-04T08:11:51.555Z,84.67
2018-03-04T08:14:19.054Z,84.42
2018-03-04T08:16:46.521Z,84.53
2018-03-04T08:19:14.003Z,84.69
2018-03-04T08:21:41.463Z,84.77
2018-03-04T08:24:08.953Z,84.42
2018-03-04T08:26:48.352Z,83.10
2018-03-04T08:29:15.839Z,81.78
2018-03-04T08:31:43.294Z,81.23
2018-03-04T08:34:10.775Z,80.59
2018-03-04T08:36:38.232Z,80.12
2018-03-04T08:39:05.718Z,79.91
2018-03-04T08:41:33.184Z,79.57
2018-03-04T08:44:00.668Z,79.41
2018-03-04T08:46:29.344Z,79.47
2018-03-04T08:48:56.837Z,79.67
2018-03-04T08:51:24.299Z,79.52
2018-03-04T08:53:51.759Z,79.98
2018-03-04T08:56:19.268Z,80.14
2018-03-04T08:58:46.811Z,80.14
2018-03-04T09:01:14.286Z,79.68
2018-03-04T09:03:41.744Z,79.24
2018-03-04T09:06:09.239Z,78.77
2018-03-04T09:08:36.755Z,78.31
2018-03-04T09:11:04.252Z,77.56
2018-03-04T09:13:31.715Z,76.82
2018-03-04T09:15:59.215Z,75.72
2018-03-04T09:18:26.679Z,75.34
2018-03-04T09:20:54.154Z,75.27
2018-03-04T09:23:21.657Z,75.78
2018-03-04T09:25:49.127Z,76.03
2018-03-04T09:28:16.583Z,77.14
2018-03-04T09:30:44.093Z,77.25
2018-03-04T09:33:11.600Z,77.57
2018-03-04T09:35:39.059Z,77.93
2018-03-04T09:38:06.529Z,78.46
2018-03-04T09:40:34.018Z,77.76
2018-03-04T09:43:01.476Z,77.62
2018-03-04T09:45:28.995Z,77.73
2018-03-04T09:47:56.436Z,77.76
2018-03-04T09:50:23.925Z,76.82
2018-03-04T09:52:51.387Z,77.21
2018-03-04T09:55:18.873Z,76.69
2018-03-04T09:57:46.339Z,76.00
2018-03-04T10:00:13.823Z,75.86
2018-03-04T10:02:41.323Z,75.16
2018-03-04T10:05:08.825Z,74.64
2018-03-04T10:07:36.290Z,74.53
2018-03-04T10:10:03.819Z,74.37
2018-03-04T10:12:31.284Z,75.39
2018-03-04T10:14:58.773Z,75.41
2018-03-04T10:17:26.251Z,75.36
2018-03-04T10:19:53.714Z,75.56
2018-03-04T10:22:21.208Z,74.50
2018-03-04T10:24:48.658Z,74.49
2018-03-04T10:27:16.147Z,74.70
2018-03-04T10:29:43.608Z,74.63
2018-03-04T10:32:11.089Z,74.08
2018-03-04T10:34:38.556Z,74.46
2018-03-04T10:37:06.040Z,74.47
2018-03-04T10:39:33.527Z,74.95
2018-03-04T10:42:01.059Z,74.62
2018-03-04T10:44:28.526Z,74.56
2018-03-04T10:46:56.020Z,74.68
2018-03-04T10:49:23.518Z,74.82
2018-03-04T10:51:51.470Z,75.09
2018-03-04T10:54:18.922Z,74.27
2018-03-04T10:56:46.403Z,73.43
2018-03-04T10:59:13.859Z,74.25
2018-03-04T11:01:44.337Z,73.94
2018-03-04T11:04:11.800Z,73.34
2018-03-04T11:06:39.721Z,73.01
2018-03-04T11:09:07.182Z,73.59
2018-03-04T11:11:34.714Z,73.17
2018-03-04T11:14:02.184Z,72.93
2018-03-04T11:16:29.664Z,73.90
2018-03-04T11:18:57.132Z,74.74
2018-03-04T11:21:24.603Z,74.79
2018-03-04T11:23:52.075Z,75.15
2018-03-04T11:26:19.586Z,74.78
2018-03-04T11:28:47.619Z,74.84
2018-03-04T11:31:15.075Z,73.65
2018-03-04T11:33:42.540Z,75.08
2018-03-04T11:36:10.027Z,74.42
2018-03-04T11:38:37.496Z,73.32
2018-03-04T11:41:04.991Z,72.93
2018-03-04T11:43:32.463Z,72.47
2018-03-04T11:46:01.847Z,72.56
2018-03-04T11:48:29.475Z,72.49
2018-03-04T11:50:56.948Z,72.99
2018-03-04T11:53:24.456Z,72.27
2018-03-04T11:55:51.974Z,71.77
2018-03-04T11:58:19.431Z,71.10
2018-03-04T12:00:47.156Z,69.92
2018-03-04T12:03:14.635Z,70.02
2018-03-04T12:05:42.099Z,69.97
2018-03-04T12:08:09.608Z,68.99
2018-03-04T12:10:37.080Z,68.82
2018-03-04T12:13:04.607Z,68.64
2018-03-04T12:15:32.075Z,67.72
2018-03-04T12:17:59.846Z,68.20
2018-03-04T12:20:27.308Z,67.93
2018-03-04T12:22:54.808Z,68.88
2018-03-04T12:25:22.337Z,68.20
2018-03-04T12:27:49.835Z,67.64
2018-03-04T12:30:18.029Z,67.67
2018-03-04T12:32:45.535Z,67.27
2018-03-04T12:35:14.224Z,66.35
2018-03-04T12:37:41.748Z,65.25
2018-03-04T12:40:11.347Z,64.46
2018-03-04T12:42:38.911Z,64.47
2018-03-04T12:45:06.512Z,64.47
2018-03-04T12:47:34.066Z,63.22
2018-03-04T12:50:01.514Z,62.98
2018-03-04T12:52:29.014Z,62.38
2018-03-04T12:54:56.491Z,62.52
2018-03-04T12:57:24.059Z,61.12
2018-03-04T12:59:51.467Z,61.33
2018-03-04T13:02:18.957Z,60.57
2018-03-04T13:04:46.423Z,61.05
2018-03-04T13:07:14.358Z,59.92
2018-03-04T13:09:41.839Z,59.45
2018-03-04T13:12:09.355Z,59.57
2018-03-04T13:14:37.147Z,60.78
2018-03-04T13:17:04.628Z,64.43
2018-03-04T13:19:32.140Z,62.83
2018-03-04T13:21:59.633Z,61.52
2018-03-04T13:24:27.140Z,60.91
2018-03-04T13:26:54.607Z,61.95
2018-03-04T13:29:22.112Z,61.70
2018-03-04T13:31:49.584Z,61.16
2018-03-04T13:34:17.147Z,60.62
2018-03-04T13:36:44.585Z,59.80
2018-03-04T13:39:12.091Z,60.36
2018-03-04T13:41:39.566Z,57.70
2018-03-04T13:44:07.064Z,59.67
2018-03-04T13:46:34.553Z,58.98
2018-03-04T13:49:02.056Z,58.30
2018-03-04T13:51:29.543Z,56.34
2018-03-04T13:53:57.051Z,53.49
2018-03-04T13:56:24.529Z,56.71
2018-03-04T13:58:52.008Z,57.82
2018-03-04T14:01:19.518Z,55.88
2018-03-04T14:03:46.992Z,54.25
2018-03-04T14:06:14.482Z,57.71
2018-03-04T14:08:41.959Z,61.68
2018-03-04T14:11:09.464Z,61.35
2018-03-04T14:13:36.943Z,62.40
2018-03-04T14:16:04.443Z,59.13
2018-03-04T14:18:31.911Z,55.74
2018-03-04T14:20:59.418Z,54.61
2018-03-04T14:23:26.911Z,53.68
2018-03-04T14:25:54.882Z,52.46
2018-03-04T14:28:22.355Z,53.49
2018-03-04T14:30:49.847Z,54.53
2018-03-04T14:33:17.311Z,55.76
2018-03-04T14:35:45.223Z,57.15
2018-03-04T14:38:12.687Z,60.06
2018-03-04T14:40:40.166Z,60.54
2018-03-04T14:43:07.664Z,60.89
2018-03-04T14:45:35.143Z,61.63
2018-03-04T14:48:02.635Z,62.17
2018-03-04T14:50:30.119Z,62.26
2018-03-04T14:52:57.653Z,62.81
2018-03-04T14:55:25.110Z,63.41
2018-03-04T14:57:52.607Z,64.00
2018-03-04T15:00:20.087Z,64.31
2018-03-04T15:02:47.580Z,64.93
2018-03-04T15:05:15.063Z,65.59
2018-03-04T15:07:42.547Z,66.22
2018-03-04T15:10:10.036Z,66.29
2018-03-04T15:12:37.535Z,67.11
2018-03-04T15:15:05.013Z,67.37
2018-03-04T15:17:32.498Z,67.70
2018-03-04T15:19:59.967Z,67.86
2018-03-04T15:22:27.459Z,68.03
2018-03-04T15:24:54.957Z,68.52
2018-03-04T15:27:22.425Z,68.81
2018-03-04T15:29:49.912Z,69.10
2018-03-04T15:32:17.379Z,69.60
2018-03-04T15:34:44.863Z,69.88
2018-03-04T15:37:12.331Z,70.17
2018-03-04T15:39:39.851Z,70.36
2018-03-04T15:42:07.307Z,70.38
2018-03-04T15:44:34.790Z,70.60
2018-03-04T15:47:02.255Z,70.56
2018-03-04T15:49:29.746Z,70.58
2018-03-04T15:51:57.203Z,70.80
2018-03-04T15:54:24.693Z,71.23
2018-03-04T15:56:52.156Z,71.52
2018-03-04T15:59:19.640Z,71.41
2018-03-04T16:01:47.158Z,71.43
2018-03-04T16:04:14.625Z,71.60
2018-03-04T16:06:42.123Z,71.31
2018-03-04T16:09:09.580Z,71.52
2018-03-04T16:11:37.112Z,71.37
2018-03-04T16:14:04.582Z,71.37
2018-03-04T16:16:32.071Z,71.27
2018-03-04T16:18:59.530Z,71.31
2018-03-04T16:21:27.012Z,71.45
2018-03-04T16:23:54.503Z,71.20
2018-03-04T16:26:21.992Z,71.35
2018-03-04T16:28:49.452Z,71.38
2018-03-04T16:31:16.939Z,71.27
2018-03-04T16:33:44.435Z,71.15
2018-03-04T16:36:11.931Z,71.11
2018-03-04T16:38:39.387Z,70.95
2018-03-04T16:41:06.875Z,70.83
2018-03-04T16:43:34.332Z,71.12
2018-03-04T16:46:01.846Z,71.79
2018-03-04T16:48:29.330Z,72.05
2018-03-04T16:50:56.795Z,72.25
2018-03-04T16:53:24.308Z,72.29
2018-03-04T16:55:51.776Z,72.51
2018-03-04T16:58:19.274Z,72.73
2018-03-04T17:00:46.754Z,72.75
2018-03-04T17:03:14.248Z,72.82
2018-03-04T17:05:41.711Z,73.10
2018-03-04T17:08:09.191Z,73.26
2018-03-04T17:10:36.679Z,73.58
2018-03-04T17:13:04.148Z,73.22
2018-03-04T17:15:31.607Z,73.28
2018-03-04T17:17:59.105Z,73.55
2018-03-04T17:20:26.565Z,73.90
2018-03-04T17:22:54.047Z,74.25
2018-03-04T17:25:21.627Z,74.46
2018-03-04T17:27:49.111Z,74.68
2018-03-04T17:30:16.666Z,74.80
2018-03-04T17:32:44.157Z,74.86
2018-03-04T17:35:11.639Z,74.83
2018-03-04T17:37:39.147Z,74.75
2018-03-04T17:40:06.595Z,74.73
2018-03-04T17:42:34.076Z,74.76
2018-03-04T17:45:01.581Z,74.92
2018-03-04T17:47:29.072Z,75.01
2018-03-04T17:49:56.549Z,74.63
2018-03-04T17:52:24.036Z,75.15
2018-03-04T17:54:51.495Z,75.10
2018-03-04T17:57:18.979Z,75.50
2018-03-04T17:59:46.450Z,75.57
2018-03-04T18:02:13.939Z,75.81
2018-03-04T18:04:41.403Z,75.82
2018-03-04T18:07:08.884Z,75.93
2018-03-04T18:09:36.353Z,75.80
2018-03-04T18:12:03.836Z,75.89
2018-03-04T18:14:31.299Z,76.10
2018-03-04T18:16:58.780Z,76.28
2018-03-04T18:19:26.242Z,76.56
2018-03-04T18:21:53.725Z,76.76
2018-03-04T18:24:21.178Z,76.85
2018-03-04T18:26:48.678Z,76.96
2018-03-04T18:29:16.140Z,76.99
2018-03-04T18:31:43.624Z,77.15
2018-03-04T18:34:11.080Z,77.46
2018-03-04T18:36:38.549Z,77.69
2018-03-04T18:39:06.036Z,77.79
2018-03-04T18:41:33.498Z,77.88
2018-03-04T18:44:00.974Z,77.95
2018-03-04T18:46:28.437Z,77.85
2018-03-04T18:48:55.920Z,77.96
2018-03-04T18:51:23.379Z,78.01
2018-03-04T18:53:50.878Z,78.19
2018-03-04T18:56:18.366Z,78.17
2018-03-04T18:58:45.863Z,78.26
2018-03-04T19:01:13.322Z,78.30
2018-03-04T19:03:40.803Z,78.34
2018-03-04T19:06:08.279Z,78.39
2018-03-04T19:08:35.755Z,78.33
2018-03-04T19:11:03.219Z,78.05
2018-03-04T19:13:30.762Z,77.96
2018-03-04T19:15:58.223Z,77.93
2018-03-04T19:18:25.699Z,78.00
2018-03-04T19:20:53.164Z,77.88
2018-03-04T19:23:20.645Z,77.71
2018-03-04T19:25:48.115Z,77.95
2018-03-04T19:28:15.612Z,77.91
2018-03-04T19:30:43.075Z,77.88
2018-03-04T19:33:10.559Z,77.88
2018-03-04T19:35:38.024Z,77.92
2018-03-04T19:38:05.496Z,78.15
2018-03-04T19:40:32.959Z,78.42
2018-03-04T19:43:00.428Z,78.60
2018-03-04T19:45:27.882Z,78.42
2018-03-04T19:47:55.359Z,78.45
2018-03-04T19:50:22.824Z,78.55
2018-03-04T19:52:50.306Z,78.69
2018-03-04T19:55:17.786Z,78.76
2018-03-04T19:57:45.238Z,78.70
2018-03-04T20:00:12.730Z,78.46
2018-03-04T20:02:40.196Z,78.60
2018-03-04T20:05:07.676Z,78.73
2018-03-04T20:07:35.146Z,79.11
2018-03-04T20:10:02.668Z,78.90
2018-03-04T20:12:30.172Z,79.53
2018-03-04T20:14:57.730Z,79.31
2018-03-04T20:17:25.204Z,79.21
2018-03-04T20:19:52.711Z,78.89
2018-03-04T20:22:20.176Z,78.22
2018-03-04T20:24:47.656Z,78.27
2018-03-04T20:27:15.128Z,78.01
2018-03-04T20:29:42.618Z,78.50
2018-03-04T20:32:10.079Z,78.29
2018-03-04T20:34:37.562Z,78.00
2018-03-04T20:37:05.028Z,77.97
2018-03-04T20:39:32.512Z,77.94
2018-03-04T20:41:59.976Z,77.86
2018-03-04T20:44:27.457Z,77.82
2018-03-04T20:46:54.928Z,77.73
2018-03-04T20:49:22.407Z,77.05
2018-03-04T20:51:49.875Z,76.49
2018-03-04T20:54:17.389Z,76.90
2018-03-04T20:56:44.860Z,77.61
2018-03-04T20:59:12.370Z,77.39
2018-03-04T21:01:39.848Z,77.32
2018-03-04T21:04:07.327Z,77.29
2018-03-04T21:06:34.813Z,77.21
2018-03-04T21:09:02.309Z,77.52
2018-03-04T21:11:29.773Z,77.90
2018-03-04T21:13:57.262Z,77.77
2018-03-04T21:16:24.723Z,77.25
2018-03-04T21:18:52.179Z,77.36
2018-03-04T21:21:19.662Z,77.34
2018-03-04T21:23:47.138Z,77.34
2018-03-04T21:26:14.623Z,77.26
2018-03-04T21:28:42.087Z,77.43
2018-03-04T21:31:09.580Z,77.00
2018-03-04T21:33:37.046Z,77.06
2018-03-04T21:36:04.524Z,76.88
2018-03-04T21:38:31.992Z,77.09
2018-03-04T21:40:59.468Z,76.93
2018-03-04T21:43:26.919Z,77.09
2018-03-04T21:45:54.396Z,76.71
2018-03-04T21:48:21.852Z,76.24
2018-03-04T21:50:49.328Z,76.27
2018-03-04T21:53:16.782Z,76.27
2018-03-04T21:55:44.297Z,75.97
2018-03-04T21:58:11.775Z,75.98
2018-03-04T22:00:39.252Z,75.57
2018-03-04T22:03:06.700Z,75.21
2018-03-04T22:05:34.176Z,75.22
2018-03-04T22:08:01.635Z,75.03
2018-03-04T22:10:29.111Z,74.67
2018-03-04T22:12:56.576Z,74.96
2018-03-04T22:15:24.063Z,74.83
2018-03-04T22:17:51.531Z,75.02
2018-03-04T22:20:19.004Z,75.32
2018-03-04T22:22:46.471Z,75.27
2018-03-04T22:25:13.968Z,75.01
2018-03-04T22:27:41.428Z,75.03
2018-03-04T22:30:08.911Z,75.06
2018-03-04T22:32:36.428Z,74.87
2018-03-04T22:35:03.932Z,75.08
2018-03-04T22:37:32.342Z,74.75
2018-03-04T22:40:05.627Z,75.02
2018-03-04T22:42:33.075Z,75.74
2018-03-04T22:45:02.529Z,75.99
2018-03-04T22:47:30.005Z,76.33
2018-03-04T22:49:57.504Z,76.97
2018-03-04T22:52:24.979Z,76.95
2018-03-04T22:54:52.435Z,76.28
2018-03-04T22:57:19.900Z,75.41
2018-03-04T22:59:47.347Z,75.39
2018-03-04T23:02:14.831Z,75.76
2018-03-04T23:04:42.291Z,75.84
2018-03-04T23:07:09.771Z,75.93
2018-03-04T23:09:37.254Z,76.07
2018-03-04T23:12:04.732Z,76.21
2018-03-04T23:14:32.187Z,75.93
2018-03-04T23:16:59.662Z,76.35
2018-03-04T23:19:27.113Z,76.42
2018-03-04T23:21:54.584Z,77.02
2018-03-04T23:24:22.035Z,77.07
2018-03-04T23:26:49.512Z,77.42
2018-03-04T23:29:16.972Z,78.10
2018-03-04T23:31:44.448Z,78.03
2018-03-04T23:34:11.907Z,78.05
2018-03-04T23:36:39.395Z,78.67
2018-03-04T23:39:06.849Z,79.24
2018-03-04T23:41:34.330Z,79.16
2018-03-04T23:44:01.790Z,78.95
2018-03-04T23:46:29.259Z,78.53
2018-03-04T23:48:56.719Z,78.09
2018-03-04T23:51:24.200Z,77.94
2018-03-04T23:53:51.651Z,78.32
2018-03-04T23:56:19.123Z,78.62
2018-03-04T23:58:46.603Z,78.62
